METAR Data
IDs: Format: Raw Decoded Include TAF

Data at: 2112 UTC 26 May 2019

METAR for:K6B9 (Skaneateles Arpt, NY, US)
Text:K6B9 262055Z AUTO VRB06KT 10SM FEW050 SCT055 21/10 A2994 RMK AO2
Temperature: 21.0°C ( 70°F)
Dewpoint: 10.0°C ( 50°F) [RH = 49%]
Pressure (altimeter):29.94 inches Hg (1014.0 mb)
Winds:variable direction winds at 7 MPH (6 knots; 3.1 m/s)
Visibility:10 or more sm (16+ km)
Ceiling:at least 12,000 feet AGL
Clouds: few clouds at 5000 feet AGL, scattered clouds at 5500 feet AGL
QC Flag:automated observation with no human augmentation
Text:K6B9 262035Z AUTO VRB05G10KT 10SM CLR 22/11 A2994 RMK AO2
Temperature: 22.0°C ( 72°F)
Dewpoint: 11.0°C ( 52°F) [RH = 50%]
Pressure (altimeter):29.94 inches Hg (1014.0 mb)
Winds:variable direction winds at 6 MPH (5 knots; 2.6 m/s) gusting to 12 MPH (10 knots; 5.1 m/s)
Visibility:10 or more sm (16+ km)
Ceiling:at least 12,000 feet AGL
Clouds:sky clear below 12,000 feet AGL
QC Flag:automated observation with no human augmentation
Text:K6B9 262015Z AUTO VRB06G12KT 10SM CLR 22/11 A2994 RMK AO2
Temperature: 22.0°C ( 72°F)
Dewpoint: 11.0°C ( 52°F) [RH = 50%]
Pressure (altimeter):29.94 inches Hg (1014.0 mb)
Winds:variable direction winds at 7 MPH (6 knots; 3.1 m/s) gusting to 14 MPH (12 knots; 6.2 m/s)
Visibility:10 or more sm (16+ km)
Ceiling:at least 12,000 feet AGL
Clouds:sky clear below 12,000 feet AGL
QC Flag:automated observation with no human augmentation
Text:K6B9 261955Z AUTO VRB06G13KT 10SM CLR 23/13 A2993 RMK AO2
Temperature: 23.0°C ( 73°F)
Dewpoint: 13.0°C ( 55°F) [RH = 53%]
Pressure (altimeter):29.93 inches Hg (1013.6 mb)
Winds:variable direction winds at 7 MPH (6 knots; 3.1 m/s) gusting to 15 MPH (13 knots; 6.7 m/s)
Visibility:10 or more sm (16+ km)
Ceiling:at least 12,000 feet AGL
Clouds:sky clear below 12,000 feet AGL
QC Flag:automated observation with no human augmentation
Text:K6B9 261935Z AUTO 34009KT 270V010 10SM CLR 23/15 A2993 RMK AO2
Temperature: 23.0°C ( 73°F)
Dewpoint: 15.0°C ( 59°F) [RH = 61%]
Pressure (altimeter):29.93 inches Hg (1013.6 mb)
Winds:from the NNW (340 degrees) at 10 MPH (9 knots; 4.6 m/s)
Visibility:10 or more sm (16+ km)
Ceiling:at least 12,000 feet AGL
Clouds:sky clear below 12,000 feet AGL
QC Flag:automated observation with no human augmentation
Text:K6B9 261915Z AUTO VRB06G15KT 10SM CLR 24/16 A2993 RMK AO2
Temperature: 24.0°C ( 75°F)
Dewpoint: 16.0°C ( 61°F) [RH = 61%]
Pressure (altimeter):29.93 inches Hg (1013.6 mb)
Winds:variable direction winds at 7 MPH (6 knots; 3.1 m/s) gusting to 17 MPH (15 knots; 7.7 m/s)
Visibility:10 or more sm (16+ km)
Ceiling:at least 12,000 feet AGL
Clouds:sky clear below 12,000 feet AGL
QC Flag:automated observation with no human augmentation
Text:K6B9 261855Z AUTO 34007G13KT 280V030 10SM CLR 24/17 A2992 RMK AO2
Temperature: 24.0°C ( 75°F)
Dewpoint: 17.0°C ( 63°F) [RH = 65%]
Pressure (altimeter):29.92 inches Hg (1013.3 mb)
Winds:from the NNW (340 degrees) at 8 MPH (7 knots; 3.6 m/s) gusting to 15 MPH (13 knots; 6.7 m/s)
Visibility:10 or more sm (16+ km)
Ceiling:at least 12,000 feet AGL
Clouds:sky clear below 12,000 feet AGL
QC Flag:automated observation with no human augmentation
Text:K6B9 261835Z AUTO VRB05KT 10SM FEW036 FEW050 FEW055 25/17 A2992 RMK AO2
Temperature: 25.0°C ( 77°F)
Dewpoint: 17.0°C ( 63°F) [RH = 61%]
Pressure (altimeter):29.92 inches Hg (1013.3 mb)
Winds:variable direction winds at 6 MPH (5 knots; 2.6 m/s)
Visibility:10 or more sm (16+ km)
Ceiling:at least 12,000 feet AGL
Clouds: few clouds at 3600 feet AGL, few clouds at 5000 feet AGL, few clouds at 5500 feet AGL
QC Flag:automated observation with no human augmentation
Text:K6B9 261815Z AUTO VRB03G10KT 10SM FEW047 SCT055 25/17 A2992 RMK AO2
Temperature: 25.0°C ( 77°F)
Dewpoint: 17.0°C ( 63°F) [RH = 61%]
Pressure (altimeter):29.92 inches Hg (1013.3 mb)
Winds:variable direction winds at 3 MPH (3 knots; 1.5 m/s) gusting to 12 MPH (10 knots; 5.1 m/s)
Visibility:10 or more sm (16+ km)
Ceiling:at least 12,000 feet AGL
Clouds: few clouds at 4700 feet AGL, scattered clouds at 5500 feet AGL
QC Flag:automated observation with no human augmentation
Text:K6B9 261755Z AUTO VRB06G13KT 10SM FEW047 SCT055 25/16 A2992 RMK AO2
Temperature: 25.0°C ( 77°F)
Dewpoint: 16.0°C ( 61°F) [RH = 57%]
Pressure (altimeter):29.92 inches Hg (1013.3 mb)
Winds:variable direction winds at 7 MPH (6 knots; 3.1 m/s) gusting to 15 MPH (13 knots; 6.7 m/s)
Visibility:10 or more sm (16+ km)
Ceiling:at least 12,000 feet AGL
Clouds: few clouds at 4700 feet AGL, scattered clouds at 5500 feet AGL
QC Flag:automated observation with no human augmentation
Text:K6B9 261735Z AUTO VRB05G16KT 10SM SCT045 BKN050 BKN060 25/16 A2992 RMK AO2
Temperature: 25.0°C ( 77°F)
Dewpoint: 16.0°C ( 61°F) [RH = 57%]
Pressure (altimeter):29.92 inches Hg (1013.3 mb)
Winds:variable direction winds at 6 MPH (5 knots; 2.6 m/s) gusting to 18 MPH (16 knots; 8.2 m/s)
Visibility:10 or more sm (16+ km)
Ceiling:5000 feet AGL
Clouds: scattered clouds at 4500 feet AGL, broken clouds at 5000 feet AGL, broken clouds at 6000 feet AGL
QC Flag:automated observation with no human augmentation
Text:K6B9 261715Z AUTO VRB06G11KT 10SM BKN039 BKN050 OVC065 24/16 A2993 RMK AO2
Temperature: 24.0°C ( 75°F)
Dewpoint: 16.0°C ( 61°F) [RH = 61%]
Pressure (altimeter):29.93 inches Hg (1013.6 mb)
Winds:variable direction winds at 7 MPH (6 knots; 3.1 m/s) gusting to 13 MPH (11 knots; 5.7 m/s)
Visibility:10 or more sm (16+ km)
Ceiling:3900 feet AGL
Clouds: broken clouds at 3900 feet AGL, broken clouds at 5000 feet AGL, overcast cloud deck at 6500 feet AGL
QC Flag:automated observation with no human augmentation
Text:K6B9 261655Z AUTO VRB06KT 10SM BKN036 BKN046 OVC060 24/17 A2994 RMK AO2
Temperature: 24.0°C ( 75°F)
Dewpoint: 17.0°C ( 63°F) [RH = 65%]
Pressure (altimeter):29.94 inches Hg (1014.0 mb)
Winds:variable direction winds at 7 MPH (6 knots; 3.1 m/s)
Visibility:10 or more sm (16+ km)
Ceiling:3600 feet AGL
Clouds: broken clouds at 3600 feet AGL, broken clouds at 4600 feet AGL, overcast cloud deck at 6000 feet AGL
QC Flag:automated observation with no human augmentation
Text:K6B9 261635Z AUTO 23007G14KT 190V250 10SM SCT033 BKN043 BKN050 24/17 A2994 RMK AO2
Temperature: 24.0°C ( 75°F)
Dewpoint: 17.0°C ( 63°F) [RH = 65%]
Pressure (altimeter):29.94 inches Hg (1014.0 mb)
Winds:from the SW (230 degrees) at 8 MPH (7 knots; 3.6 m/s) gusting to 16 MPH (14 knots; 7.2 m/s)
Visibility:10 or more sm (16+ km)
Ceiling:4300 feet AGL
Clouds: scattered clouds at 3300 feet AGL, broken clouds at 4300 feet AGL, broken clouds at 5000 feet AGL
QC Flag:automated observation with no human augmentation
Text:K6B9 261615Z AUTO 25007G16KT 220V280 10SM SCT030 SCT038 BKN065 24/18 A2995 RMK AO2
Temperature: 24.0°C ( 75°F)
Dewpoint: 18.0°C ( 64°F) [RH = 69%]
Pressure (altimeter):29.95 inches Hg (1014.3 mb)
Winds:from the WSW (250 degrees) at 8 MPH (7 knots; 3.6 m/s) gusting to 18 MPH (16 knots; 8.2 m/s)
Visibility:10 or more sm (16+ km)
Ceiling:6500 feet AGL
Clouds: scattered clouds at 3000 feet AGL, scattered clouds at 3800 feet AGL, broken clouds at 6500 feet AGL
QC Flag:automated observation with no human augmentation
Text:K6B9 261555Z AUTO 27007KT 230V300 10SM FEW031 SCT042 BKN065 24/19 A2995 RMK AO2
Temperature: 24.0°C ( 75°F)
Dewpoint: 19.0°C ( 66°F) [RH = 74%]
Pressure (altimeter):29.95 inches Hg (1014.3 mb)
Winds:from the W (270 degrees) at 8 MPH (7 knots; 3.6 m/s)
Visibility:10 or more sm (16+ km)
Ceiling:6500 feet AGL
Clouds: few clouds at 3100 feet AGL, scattered clouds at 4200 feet AGL, broken clouds at 6500 feet AGL
QC Flag:automated observation with no human augmentation
Text:K6B9 261535Z AUTO 25007KT 210V280 10SM FEW027 SCT042 BKN060 24/18 A2995 RMK AO2
Temperature: 24.0°C ( 75°F)
Dewpoint: 18.0°C ( 64°F) [RH = 69%]
Pressure (altimeter):29.95 inches Hg (1014.3 mb)
Winds:from the WSW (250 degrees) at 8 MPH (7 knots; 3.6 m/s)
Visibility:10 or more sm (16+ km)
Ceiling:6000 feet AGL
Clouds: few clouds at 2700 feet AGL, scattered clouds at 4200 feet AGL, broken clouds at 6000 feet AGL
QC Flag:automated observation with no human augmentation
Text:K6B9 261515Z AUTO 23009G14KT 170V260 10SM SCT024 SCT040 SCT060 24/18 A2995 RMK AO2
Temperature: 24.0°C ( 75°F)
Dewpoint: 18.0°C ( 64°F) [RH = 69%]
Pressure (altimeter):29.95 inches Hg (1014.3 mb)
Winds:from the SW (230 degrees) at 10 MPH (9 knots; 4.6 m/s) gusting to 16 MPH (14 knots; 7.2 m/s)
Visibility:10 or more sm (16+ km)
Ceiling:at least 12,000 feet AGL
Clouds: scattered clouds at 2400 feet AGL, scattered clouds at 4000 feet AGL, scattered clouds at 6000 feet AGL
QC Flag:automated observation with no human augmentation
Text:K6B9 261455Z AUTO 25010KT 10SM BKN022 BKN028 23/18 A2995 RMK AO2
Temperature: 23.0°C ( 73°F)
Dewpoint: 18.0°C ( 64°F) [RH = 73%]
Pressure (altimeter):29.95 inches Hg (1014.3 mb)
Winds:from the WSW (250 degrees) at 12 MPH (10 knots; 5.1 m/s)
Visibility:10 or more sm (16+ km)
Ceiling:2200 feet AGL
Clouds: broken clouds at 2200 feet AGL, broken clouds at 2800 feet AGL
QC Flag:automated observation with no human augmentation
Text:K6B9 261435Z AUTO VRB06G14KT 10SM SCT018 BKN023 BKN028 23/18 A2996 RMK AO2
Temperature: 23.0°C ( 73°F)
Dewpoint: 18.0°C ( 64°F) [RH = 73%]
Pressure (altimeter):29.96 inches Hg (1014.6 mb)
Winds:variable direction winds at 7 MPH (6 knots; 3.1 m/s) gusting to 16 MPH (14 knots; 7.2 m/s)
Visibility:10 or more sm (16+ km)
Ceiling:2300 feet AGL
Clouds: scattered clouds at 1800 feet AGL, broken clouds at 2300 feet AGL, broken clouds at 2800 feet AGL
QC Flag:automated observation with no human augmentation
Text:K6B9 261415Z AUTO 26008G13KT 10SM BKN019 BKN024 BKN031 22/18 A2996 RMK AO2
Temperature: 22.0°C ( 72°F)
Dewpoint: 18.0°C ( 64°F) [RH = 78%]
Pressure (altimeter):29.96 inches Hg (1014.6 mb)
Winds:from the W (260 degrees) at 9 MPH (8 knots; 4.1 m/s) gusting to 15 MPH (13 knots; 6.7 m/s)
Visibility:10 or more sm (16+ km)
Ceiling:1900 feet AGL
Clouds: broken clouds at 1900 feet AGL, broken clouds at 2400 feet AGL, broken clouds at 3100 feet AGL
QC Flag:automated observation with no human augmentation
Text:K6B9 261355Z AUTO 27008G16KT 240V310 10SM BKN017 BKN023 22/18 A2997 RMK AO2
Temperature: 22.0°C ( 72°F)
Dewpoint: 18.0°C ( 64°F) [RH = 78%]
Pressure (altimeter):29.97 inches Hg (1015.0 mb)
Winds:from the W (270 degrees) at 9 MPH (8 knots; 4.1 m/s) gusting to 18 MPH (16 knots; 8.2 m/s)
Visibility:10 or more sm (16+ km)
Ceiling:1700 feet AGL
Clouds: broken clouds at 1700 feet AGL, broken clouds at 2300 feet AGL
QC Flag:automated observation with no human augmentation
Text:K6B9 261335Z AUTO 26009G17KT 220V290 10SM SCT016 SCT025 SCT055 22/18 A2997 RMK AO2
Temperature: 22.0°C ( 72°F)
Dewpoint: 18.0°C ( 64°F) [RH = 78%]
Pressure (altimeter):29.97 inches Hg (1015.0 mb)
Winds:from the W (260 degrees) at 10 MPH (9 knots; 4.6 m/s) gusting to 20 MPH (17 knots; 8.7 m/s)
Visibility:10 or more sm (16+ km)
Ceiling:at least 12,000 feet AGL
Clouds: scattered clouds at 1600 feet AGL, scattered clouds at 2500 feet AGL, scattered clouds at 5500 feet AGL
QC Flag:automated observation with no human augmentation
Text:K6B9 261315Z AUTO 26009G14KT 10SM SCT025 21/18 A2997 RMK AO2
Temperature: 21.0°C ( 70°F)
Dewpoint: 18.0°C ( 64°F) [RH = 83%]
Pressure (altimeter):29.97 inches Hg (1015.0 mb)
Winds:from the W (260 degrees) at 10 MPH (9 knots; 4.6 m/s) gusting to 16 MPH (14 knots; 7.2 m/s)
Visibility:10 or more sm (16+ km)
Ceiling:at least 12,000 feet AGL
Clouds: scattered clouds at 2500 feet AGL
QC Flag:automated observation with no human augmentation
Text:K6B9 261255Z AUTO 26007G16KT 240V310 10SM BKN024 21/18 A2997 RMK AO2
Temperature: 21.0°C ( 70°F)
Dewpoint: 18.0°C ( 64°F) [RH = 83%]
Pressure (altimeter):29.97 inches Hg (1015.0 mb)
Winds:from the W (260 degrees) at 8 MPH (7 knots; 3.6 m/s) gusting to 18 MPH (16 knots; 8.2 m/s)
Visibility:10 or more sm (16+ km)
Ceiling:2400 feet AGL
Clouds: broken clouds at 2400 feet AGL
QC Flag:automated observation with no human augmentation
Text:K6B9 261235Z AUTO VRB06G14KT 10SM FEW023 21/18 A2996 RMK AO2
Temperature: 21.0°C ( 70°F)
Dewpoint: 18.0°C ( 64°F) [RH = 83%]
Pressure (altimeter):29.96 inches Hg (1014.6 mb)
Winds:variable direction winds at 7 MPH (6 knots; 3.1 m/s) gusting to 16 MPH (14 knots; 7.2 m/s)
Visibility:10 or more sm (16+ km)
Ceiling:at least 12,000 feet AGL
Clouds: few clouds at 2300 feet AGL
QC Flag:automated observation with no human augmentation
Text:K6B9 261215Z AUTO 25010KT 10SM BKN024 20/18 A2996 RMK AO2
Temperature: 20.0°C ( 68°F)
Dewpoint: 18.0°C ( 64°F) [RH = 88%]
Pressure (altimeter):29.96 inches Hg (1014.6 mb)
Winds:from the WSW (250 degrees) at 12 MPH (10 knots; 5.1 m/s)
Visibility:10 or more sm (16+ km)
Ceiling:2400 feet AGL
Clouds: broken clouds at 2400 feet AGL
QC Flag:automated observation with no human augmentation
Text:K6B9 261155Z AUTO 25006KT 10SM OVC025 20/18 A2995 RMK AO2
Temperature: 20.0°C ( 68°F)
Dewpoint: 18.0°C ( 64°F) [RH = 88%]
Pressure (altimeter):29.95 inches Hg (1014.3 mb)
Winds:from the WSW (250 degrees) at 7 MPH (6 knots; 3.1 m/s)
Visibility:10 or more sm (16+ km)
Ceiling:2500 feet AGL
Clouds: overcast cloud deck at 2500 feet AGL
QC Flag:automated observation with no human augmentation
Text:K6B9 261135Z AUTO 25006KT 10SM BKN027 BKN032 20/18 A2995 RMK AO2
Temperature: 20.0°C ( 68°F)
Dewpoint: 18.0°C ( 64°F) [RH = 88%]
Pressure (altimeter):29.95 inches Hg (1014.3 mb)
Winds:from the WSW (250 degrees) at 7 MPH (6 knots; 3.1 m/s)
Visibility:10 or more sm (16+ km)
Ceiling:2700 feet AGL
Clouds: broken clouds at 2700 feet AGL, broken clouds at 3200 feet AGL
QC Flag:automated observation with no human augmentation
Text:K6B9 261115Z AUTO 26005KT 19/17 A2993 RMK AO2
Temperature: 19.0°C ( 66°F)
Dewpoint: 17.0°C ( 63°F) [RH = 88%]
Pressure (altimeter):29.93 inches Hg (1013.6 mb)
Winds:from the W (260 degrees) at 6 MPH (5 knots; 2.6 m/s)
QC Flag:automated observation with no human augmentation
Text:K6B9 261055Z AUTO 25004KT 10SM FEW035 19/17 A2993 RMK AO2
Temperature: 19.0°C ( 66°F)
Dewpoint: 17.0°C ( 63°F) [RH = 88%]
Pressure (altimeter):29.93 inches Hg (1013.6 mb)
Winds:from the WSW (250 degrees) at 5 MPH (4 knots; 2.1 m/s)
Visibility:10 or more sm (16+ km)
Ceiling:at least 12,000 feet AGL
Clouds: few clouds at 3500 feet AGL
QC Flag:automated observation with no human augmentation
Text:K6B9 261035Z AUTO 25006KT 10SM CLR 18/17 A2992 RMK AO2
Temperature: 18.0°C ( 64°F)
Dewpoint: 17.0°C ( 63°F) [RH = 94%]
Pressure (altimeter):29.92 inches Hg (1013.3 mb)
Winds:from the WSW (250 degrees) at 7 MPH (6 knots; 3.1 m/s)
Visibility:10 or more sm (16+ km)
Ceiling:at least 12,000 feet AGL
Clouds:sky clear below 12,000 feet AGL
QC Flag:automated observation with no human augmentation
Text:K6B9 261015Z AUTO 24004KT 10SM CLR 18/17 A2992 RMK AO2
Temperature: 18.0°C ( 64°F)
Dewpoint: 17.0°C ( 63°F) [RH = 94%]
Pressure (altimeter):29.92 inches Hg (1013.3 mb)
Winds:from the WSW (240 degrees) at 5 MPH (4 knots; 2.1 m/s)
Visibility:10 or more sm (16+ km)
Ceiling:at least 12,000 feet AGL
Clouds:sky clear below 12,000 feet AGL
QC Flag:automated observation with no human augmentation
Text:K6B9 260955Z AUTO 24005KT 10SM CLR 18/17 A2992 RMK AO2
Temperature: 18.0°C ( 64°F)
Dewpoint: 17.0°C ( 63°F) [RH = 94%]
Pressure (altimeter):29.92 inches Hg (1013.3 mb)
Winds:from the WSW (240 degrees) at 6 MPH (5 knots; 2.6 m/s)
Visibility:10 or more sm (16+ km)
Ceiling:at least 12,000 feet AGL
Clouds:sky clear below 12,000 feet AGL
QC Flag:automated observation with no human augmentation
Text:K6B9 260935Z AUTO 23006G11KT 10SM CLR 18/17 A2991 RMK AO2
Temperature: 18.0°C ( 64°F)
Dewpoint: 17.0°C ( 63°F) [RH = 94%]
Pressure (altimeter):29.91 inches Hg (1013.0 mb)
Winds:from the SW (230 degrees) at 7 MPH (6 knots; 3.1 m/s) gusting to 13 MPH (11 knots; 5.7 m/s)
Visibility:10 or more sm (16+ km)
Ceiling:at least 12,000 feet AGL
Clouds:sky clear below 12,000 feet AGL
QC Flag:automated observation with no human augmentation
Text:K6B9 260915Z AUTO 23007KT 10SM CLR 18/17 A2991 RMK AO2
Temperature: 18.0°C ( 64°F)
Dewpoint: 17.0°C ( 63°F) [RH = 94%]
Pressure (altimeter):29.91 inches Hg (1013.0 mb)
Winds:from the SW (230 degrees) at 8 MPH (7 knots; 3.6 m/s)
Visibility:10 or more sm (16+ km)
Ceiling:at least 12,000 feet AGL
Clouds:sky clear below 12,000 feet AGL
QC Flag:automated observation with no human augmentation